Terminal Aerodrome Forecast
Issued by NWS Nashville, TN

Home | Current Version | Previous Version | Text Only | Print | Product List | Glossary On
Versions: 1 2 3 4 5 6 7 8 9 10 11 12 13 14 15 16 17
000
FTUS44 KOHX 010500
TAFCSV
TAF
KCSV 010523Z 0106/0206 16007KT P6SM OVC100
     FM010800 VRB03KT P6SM OVC050
     FM011000 18004KT P6SM OVC015
     FM011400 19004KT 2SM -RA BR OVC003
     FM020300 23003KT 4SM -DZ BR OVC003=

USA.gov is the U.S. government's official web portal to all federal, state and local government web resources and services.